sensor_id;sensor_type;location;lat;lon;timestamp;P1;durP1;ratioP1;P2;durP2;ratioP2
52041;SDS011;38052;45.944;13.624;2022-09-09T00:02:19;3.00;;;0.95;;
52041;SDS011;38052;45.944;13.624;2022-09-09T00:04:59;2.83;;;1.20;;
52041;SDS011;38052;45.944;13.624;2022-09-09T00:10:32;3.63;;;1.40;;
52041;SDS011;38052;45.944;13.624;2022-09-09T00:13:19;4.43;;;2.05;;
52041;SDS011;38052;45.944;13.624;2022-09-09T00:21:06;6.95;;;2.15;;
52041;SDS011;38052;45.944;13.624;2022-09-09T00:23:39;6.03;;;2.15;;
52041;SDS011;38052;45.944;13.624;2022-09-09T00:26:41;5.25;;;1.88;;
52041;SDS011;38052;45.944;13.624;2022-09-09T00:29:02;3.08;;;1.67;;
52041;SDS011;38052;45.944;13.624;2022-09-09T00:31:30;5.20;;;1.88;;
52041;SDS011;38052;45.944;13.624;2022-09-09T00:34:13;6.13;;;1.48;;
52041;SDS011;38052;45.944;13.624;2022-09-09T00:36:41;4.47;;;1.10;;
52041;SDS011;38052;45.944;13.624;2022-09-09T00:39:23;7.88;;;1.20;;
52041;SDS011;38052;45.944;13.624;2022-09-09T00:41:55;2.83;;;1.30;;
52041;SDS011;38052;45.944;13.624;2022-09-09T00:44:33;2.95;;;1.38;;
52041;SDS011;38052;45.944;13.624;2022-09-09T00:55:12;1.40;;;1.15;;
52041;SDS011;38052;45.944;13.624;2022-09-09T00:57:41;6.30;;;1.10;;
52041;SDS011;38052;45.944;13.624;2022-09-09T01:08:56;4.97;;;1.55;;
52041;SDS011;38052;45.944;13.624;2022-09-09T01:10:56;4.72;;;0.95;;
52041;SDS011;38052;45.944;13.624;2022-09-09T01:13:24;3.88;;;1.23;;
52041;SDS011;38052;45.944;13.624;2022-09-09T01:15:51;1.83;;;1.13;;
52041;SDS011;38052;45.944;13.624;2022-09-09T01:18:19;4.85;;;1.48;;
52041;SDS011;38052;45.944;13.624;2022-09-09T01:21:34;2.22;;;1.23;;
52041;SDS011;38052;45.944;13.624;2022-09-09T01:26:19;3.15;;;1.45;;
52041;SDS011;38052;45.944;13.624;2022-09-09T01:28:48;4.65;;;0.90;;
52041;SDS011;38052;45.944;13.624;2022-09-09T01:31:16;3.10;;;1.02;;
52041;SDS011;38052;45.944;13.624;2022-09-09T01:33:43;5.50;;;1.02;;
52041;SDS011;38052;45.944;13.624;2022-09-09T01:36:11;3.67;;;0.90;;
52041;SDS011;38052;45.944;13.624;2022-09-09T01:38:39;4.13;;;1.55;;
52041;SDS011;38052;45.944;13.624;2022-09-09T01:41:06;3.42;;;1.38;;
52041;SDS011;38052;45.944;13.624;2022-09-09T01:43:32;3.00;;;1.25;;
52041;SDS011;38052;45.944;13.624;2022-09-09T01:46:00;4.85;;;1.98;;
52041;SDS011;38052;45.944;13.624;2022-09-09T01:48:27;6.57;;;1.23;;
52041;SDS011;38052;45.944;13.624;2022-09-09T01:50:54;5.07;;;1.23;;
52041;SDS011;38052;45.944;13.624;2022-09-09T01:53:21;3.15;;;1.63;;
52041;SDS011;38052;45.944;13.624;2022-09-09T01:58:47;6.90;;;2.42;;
52041;SDS011;38052;45.944;13.624;2022-09-09T02:01:26;4.60;;;1.30;;
52041;SDS011;38052;45.944;13.624;2022-09-09T02:03:57;3.67;;;1.07;;
52041;SDS011;38052;45.944;13.624;2022-09-09T02:08:53;4.07;;;1.38;;
52041;SDS011;38052;45.944;13.624;2022-09-09T02:11:22;5.20;;;1.33;;
52041;SDS011;38052;45.944;13.624;2022-09-09T02:13:51;3.72;;;1.83;;
52041;SDS011;38052;45.944;13.624;2022-09-09T02:18:50;5.55;;;1.73;;
52041;SDS011;38052;45.944;13.624;2022-09-09T02:21:17;5.22;;;1.85;;
52041;SDS011;38052;45.944;13.624;2022-09-09T02:23:43;4.70;;;1.40;;
52041;SDS011;38052;45.944;13.624;2022-09-09T02:26:13;6.13;;;1.25;;
52041;SDS011;38052;45.944;13.624;2022-09-09T02:28:44;8.85;;;1.65;;
52041;SDS011;38052;45.944;13.624;2022-09-09T02:31:13;1.83;;;1.17;;
52041;SDS011;38052;45.944;13.624;2022-09-09T02:33:43;2.88;;;1.05;;
52041;SDS011;38052;45.944;13.624;2022-09-09T02:36:10;3.60;;;1.35;;
52041;SDS011;38052;45.944;13.624;2022-09-09T02:38:39;4.60;;;1.88;;
52041;SDS011;38052;45.944;13.624;2022-09-09T02:41:06;4.22;;;1.70;;
52041;SDS011;38052;45.944;13.624;2022-09-09T02:43:33;7.53;;;1.90;;
52041;SDS011;38052;45.944;13.624;2022-09-09T02:46:07;3.00;;;1.60;;
52041;SDS011;38052;45.944;13.624;2022-09-09T02:48:56;5.47;;;1.75;;
52041;SDS011;38052;45.944;13.624;2022-09-09T02:51:26;4.05;;;1.70;;
52041;SDS011;38052;45.944;13.624;2022-09-09T02:56:29;6.82;;;1.88;;
52041;SDS011;38052;45.944;13.624;2022-09-09T02:58:58;4.78;;;1.70;;
52041;SDS011;38052;45.944;13.624;2022-09-09T03:01:25;3.58;;;1.20;;
52041;SDS011;38052;45.944;13.624;2022-09-09T03:03:51;3.10;;;1.20;;
52041;SDS011;38052;45.944;13.624;2022-09-09T03:06:18;4.95;;;1.52;;
52041;SDS011;38052;45.944;13.624;2022-09-09T03:08:44;3.72;;;1.75;;
52041;SDS011;38052;45.944;13.624;2022-09-09T03:11:11;2.97;;;1.42;;
52041;SDS011;38052;45.944;13.624;2022-09-09T03:13:39;6.03;;;1.75;;
52041;SDS011;38052;45.944;13.624;2022-09-09T03:16:05;12.25;;;2.25;;
52041;SDS011;38052;45.944;13.624;2022-09-09T03:18:32;3.47;;;1.70;;
52041;SDS011;38052;45.944;13.624;2022-09-09T03:20:59;7.40;;;2.33;;
52041;SDS011;38052;45.944;13.624;2022-09-09T03:23:25;7.18;;;1.67;;
52041;SDS011;38052;45.944;13.624;2022-09-09T03:25:51;3.83;;;1.98;;
52041;SDS011;38052;45.944;13.624;2022-09-09T03:28:21;3.22;;;1.52;;
52041;SDS011;38052;45.944;13.624;2022-09-09T03:30:48;4.25;;;1.67;;
52041;SDS011;38052;45.944;13.624;2022-09-09T03:33:15;6.80;;;1.80;;
52041;SDS011;38052;45.944;13.624;2022-09-09T03:35:45;5.65;;;1.83;;
52041;SDS011;38052;45.944;13.624;2022-09-09T03:38:12;3.67;;;1.63;;
52041;SDS011;38052;45.944;13.624;2022-09-09T03:40:39;5.70;;;2.25;;
52041;SDS011;38052;45.944;13.624;2022-09-09T03:43:05;4.40;;;2.13;;
52041;SDS011;38052;45.944;13.624;2022-09-09T03:45:32;2.75;;;1.80;;
52041;SDS011;38052;45.944;13.624;2022-09-09T03:47:58;6.38;;;1.92;;
52041;SDS011;38052;45.944;13.624;2022-09-09T03:50:25;6.97;;;2.10;;
52041;SDS011;38052;45.944;13.624;2022-09-09T03:52:51;7.18;;;1.65;;
52041;SDS011;38052;45.944;13.624;2022-09-09T03:55:18;7.95;;;2.35;;
52041;SDS011;38052;45.944;13.624;2022-09-09T03:57:44;6.38;;;2.10;;
52041;SDS011;38052;45.944;13.624;2022-09-09T04:00:11;5.88;;;2.22;;
52041;SDS011;38052;45.944;13.624;2022-09-09T04:02:37;2.92;;;1.52;;
52041;SDS011;38052;45.944;13.624;2022-09-09T04:05:04;6.28;;;1.67;;
52041;SDS011;38052;45.944;13.624;2022-09-09T04:07:31;5.88;;;2.50;;
52041;SDS011;38052;45.944;13.624;2022-09-09T04:09:58;2.90;;;1.90;;
52041;SDS011;38052;45.944;13.624;2022-09-09T04:12:24;4.65;;;2.20;;
52041;SDS011;38052;45.944;13.624;2022-09-09T04:14:51;4.75;;;2.17;;
52041;SDS011;38052;45.944;13.624;2022-09-09T04:17:17;2.97;;;1.60;;
52041;SDS011;38052;45.944;13.624;2022-09-09T04:19:44;4.60;;;1.77;;
52041;SDS011;38052;45.944;13.624;2022-09-09T04:22:11;2.70;;;1.45;;
52041;SDS011;38052;45.944;13.624;2022-09-09T04:24:37;3.60;;;2.20;;
52041;SDS011;38052;45.944;13.624;2022-09-09T04:27:03;2.65;;;1.67;;
52041;SDS011;38052;45.944;13.624;2022-09-09T04:29:30;4.55;;;1.85;;
52041;SDS011;38052;45.944;13.624;2022-09-09T04:31:56;3.05;;;2.20;;
52041;SDS011;38052;45.944;13.624;2022-09-09T04:34:23;6.65;;;2.55;;
52041;SDS011;38052;45.944;13.624;2022-09-09T04:36:50;9.77;;;1.40;;
52041;SDS011;38052;45.944;13.624;2022-09-09T04:39:20;6.13;;;2.22;;
52041;SDS011;38052;45.944;13.624;2022-09-09T04:41:46;6.28;;;1.63;;
52041;SDS011;38052;45.944;13.624;2022-09-09T04:44:12;4.75;;;2.08;;
52041;SDS011;38052;45.944;13.624;2022-09-09T04:46:39;4.10;;;1.70;;
52041;SDS011;38052;45.944;13.624;2022-09-09T04:49:06;5.30;;;2.13;;
52041;SDS011;38052;45.944;13.624;2022-09-09T04:51:33;7.45;;;2.47;;
52041;SDS011;38052;45.944;13.624;2022-09-09T04:53:59;4.93;;;1.90;;
52041;SDS011;38052;45.944;13.624;2022-09-09T04:56:25;4.82;;;1.85;;
52041;SDS011;38052;45.944;13.624;2022-09-09T04:58:53;8.82;;;2.13;;
52041;SDS011;38052;45.944;13.624;2022-09-09T05:01:20;4.45;;;2.08;;
52041;SDS011;38052;45.944;13.624;2022-09-09T05:03:47;5.97;;;2.10;;
52041;SDS011;38052;45.944;13.624;2022-09-09T05:06:15;7.30;;;2.53;;
52041;SDS011;38052;45.944;13.624;2022-09-09T05:08:42;4.22;;;2.08;;
52041;SDS011;38052;45.944;13.624;2022-09-09T05:11:21;3.88;;;1.90;;
52041;SDS011;38052;45.944;13.624;2022-09-09T05:13:49;4.85;;;2.33;;
52041;SDS011;38052;45.944;13.624;2022-09-09T05:16:16;6.88;;;2.58;;
52041;SDS011;38052;45.944;13.624;2022-09-09T05:18:42;5.70;;;2.83;;
52041;SDS011;38052;45.944;13.624;2022-09-09T05:21:12;5.68;;;2.30;;
52041;SDS011;38052;45.944;13.624;2022-09-09T05:23:39;7.32;;;2.20;;
52041;SDS011;38052;45.944;13.624;2022-09-09T05:26:06;5.00;;;2.28;;
52041;SDS011;38052;45.944;13.624;2022-09-09T05:28:34;4.45;;;1.90;;
52041;SDS011;38052;45.944;13.624;2022-09-09T05:31:01;5.13;;;1.65;;
52041;SDS011;38052;45.944;13.624;2022-09-09T05:33:29;6.82;;;2.15;;
52041;SDS011;38052;45.944;13.624;2022-09-09T05:35:57;7.80;;;2.55;;
52041;SDS011;38052;45.944;13.624;2022-09-09T05:38:23;8.35;;;2.88;;
52041;SDS011;38052;45.944;13.624;2022-09-09T05:40:50;4.65;;;2.22;;
52041;SDS011;38052;45.944;13.624;2022-09-09T05:43:17;2.25;;;1.85;;
52041;SDS011;38052;45.944;13.624;2022-09-09T05:45:43;4.95;;;2.25;;
52041;SDS011;38052;45.944;13.624;2022-09-09T05:48:10;4.30;;;1.92;;
52041;SDS011;38052;45.944;13.624;2022-09-09T05:50:37;3.28;;;1.95;;
52041;SDS011;38052;45.944;13.624;2022-09-09T05:53:03;4.07;;;2.38;;
52041;SDS011;38052;45.944;13.624;2022-09-09T05:55:30;4.97;;;2.05;;
52041;SDS011;38052;45.944;13.624;2022-09-09T05:57:56;4.60;;;2.15;;
52041;SDS011;38052;45.944;13.624;2022-09-09T06:00:23;6.10;;;1.95;;
52041;SDS011;38052;45.944;13.624;2022-09-09T06:02:50;4.10;;;2.13;;
52041;SDS011;38052;45.944;13.624;2022-09-09T06:05:17;5.38;;;2.38;;
52041;SDS011;38052;45.944;13.624;2022-09-09T06:07:43;5.15;;;2.22;;
52041;SDS011;38052;45.944;13.624;2022-09-09T06:10:10;3.95;;;1.75;;
52041;SDS011;38052;45.944;13.624;2022-09-09T06:12:38;6.13;;;2.22;;
52041;SDS011;38052;45.944;13.624;2022-09-09T06:15:05;5.50;;;1.80;;
52041;SDS011;38052;45.944;13.624;2022-09-09T06:17:34;6.47;;;1.98;;
52041;SDS011;38052;45.944;13.624;2022-09-09T06:20:00;3.90;;;2.15;;
52041;SDS011;38052;45.944;13.624;2022-09-09T06:22:27;3.55;;;1.67;;
52041;SDS011;38052;45.944;13.624;2022-09-09T06:24:54;6.82;;;2.53;;
52041;SDS011;38052;45.944;13.624;2022-09-09T06:27:20;5.03;;;2.03;;
52041;SDS011;38052;45.944;13.624;2022-09-09T06:29:47;6.35;;;2.35;;
52041;SDS011;38052;45.944;13.624;2022-09-09T06:32:13;11.15;;;2.42;;
52041;SDS011;38052;45.944;13.624;2022-09-09T06:34:40;5.63;;;2.50;;
52041;SDS011;38052;45.944;13.624;2022-09-09T06:37:06;4.63;;;2.03;;
52041;SDS011;38052;45.944;13.624;2022-09-09T06:39:33;5.32;;;1.75;;
52041;SDS011;38052;45.944;13.624;2022-09-09T06:41:59;7.47;;;2.33;;
52041;SDS011;38052;45.944;13.624;2022-09-09T06:44:25;3.85;;;2.05;;
52041;SDS011;38052;45.944;13.624;2022-09-09T06:46:52;7.63;;;3.08;;
52041;SDS011;38052;45.944;13.624;2022-09-09T06:49:18;5.35;;;2.20;;
52041;SDS011;38052;45.944;13.624;2022-09-09T06:51:44;11.00;;;3.50;;
52041;SDS011;38052;45.944;13.624;2022-09-09T06:54:11;12.38;;;3.15;;
52041;SDS011;38052;45.944;13.624;2022-09-09T06:56:39;10.63;;;3.33;;
52041;SDS011;38052;45.944;13.624;2022-09-09T06:59:07;7.18;;;2.28;;
52041;SDS011;38052;45.944;13.624;2022-09-09T07:01:37;9.55;;;2.55;;
52041;SDS011;38052;45.944;13.624;2022-09-09T07:04:05;6.80;;;3.03;;
52041;SDS011;38052;45.944;13.624;2022-09-09T07:06:35;6.25;;;2.30;;
52041;SDS011;38052;45.944;13.624;2022-09-09T07:09:04;5.15;;;2.38;;
52041;SDS011;38052;45.944;13.624;2022-09-09T07:11:32;4.75;;;2.08;;
52041;SDS011;38052;45.944;13.624;2022-09-09T07:13:59;5.68;;;1.75;;
52041;SDS011;38052;45.944;13.624;2022-09-09T07:16:26;4.85;;;2.03;;
52041;SDS011;38052;45.944;13.624;2022-09-09T07:18:53;4.68;;;2.00;;
52041;SDS011;38052;45.944;13.624;2022-09-09T07:21:26;5.10;;;2.05;;
52041;SDS011;38052;45.944;13.624;2022-09-09T07:23:53;4.00;;;1.95;;
52041;SDS011;38052;45.944;13.624;2022-09-09T07:26:20;4.97;;;1.88;;
52041;SDS011;38052;45.944;13.624;2022-09-09T07:28:47;7.45;;;2.40;;
52041;SDS011;38052;45.944;13.624;2022-09-09T07:31:36;3.78;;;2.30;;
52041;SDS011;38052;45.944;13.624;2022-09-09T07:34:02;5.75;;;2.40;;
52041;SDS011;38052;45.944;13.624;2022-09-09T07:36:29;5.63;;;2.45;;
52041;SDS011;38052;45.944;13.624;2022-09-09T07:38:57;5.63;;;2.75;;
52041;SDS011;38052;45.944;13.624;2022-09-09T07:41:25;5.30;;;2.55;;
52041;SDS011;38052;45.944;13.624;2022-09-09T07:43:51;3.05;;;2.13;;
52041;SDS011;38052;45.944;13.624;2022-09-09T07:46:22;6.85;;;2.42;;
52041;SDS011;38052;45.944;13.624;2022-09-09T07:48:49;3.33;;;2.42;;
52041;SDS011;38052;45.944;13.624;2022-09-09T07:51:16;5.03;;;2.55;;
52041;SDS011;38052;45.944;13.624;2022-09-09T07:53:45;5.75;;;2.55;;
52041;SDS011;38052;45.944;13.624;2022-09-09T07:56:13;6.88;;;2.75;;
52041;SDS011;38052;45.944;13.624;2022-09-09T07:58:41;3.88;;;2.83;;
52041;SDS011;38052;45.944;13.624;2022-09-09T08:01:09;6.40;;;2.33;;
52041;SDS011;38052;45.944;13.624;2022-09-09T08:03:36;4.47;;;2.38;;
52041;SDS011;38052;45.944;13.624;2022-09-09T08:06:03;4.50;;;2.13;;
52041;SDS011;38052;45.944;13.624;2022-09-09T08:08:31;5.60;;;2.38;;
52041;SDS011;38052;45.944;13.624;2022-09-09T08:11:01;3.85;;;2.13;;
52041;SDS011;38052;45.944;13.624;2022-09-09T08:13:28;3.28;;;1.80;;
52041;SDS011;38052;45.944;13.624;2022-09-09T08:15:55;5.25;;;2.20;;
52041;SDS011;38052;45.944;13.624;2022-09-09T08:18:29;4.28;;;1.67;;
52041;SDS011;38052;45.944;13.624;2022-09-09T08:20:56;8.10;;;1.90;;
52041;SDS011;38052;45.944;13.624;2022-09-09T08:23:22;7.15;;;2.10;;
52041;SDS011;38052;45.944;13.624;2022-09-09T08:25:49;10.73;;;2.38;;
52041;SDS011;38052;45.944;13.624;2022-09-09T08:28:15;4.05;;;2.17;;
52041;SDS011;38052;45.944;13.624;2022-09-09T08:30:41;5.22;;;2.50;;
52041;SDS011;38052;45.944;13.624;2022-09-09T08:33:08;6.00;;;2.45;;
52041;SDS011;38052;45.944;13.624;2022-09-09T08:35:35;5.75;;;1.92;;
52041;SDS011;38052;45.944;13.624;2022-09-09T08:38:01;7.00;;;2.60;;
52041;SDS011;38052;45.944;13.624;2022-09-09T08:40:28;5.38;;;2.85;;
52041;SDS011;38052;45.944;13.624;2022-09-09T08:42:57;3.13;;;1.90;;
52041;SDS011;38052;45.944;13.624;2022-09-09T08:45:31;5.00;;;2.95;;
52041;SDS011;38052;45.944;13.624;2022-09-09T08:50:41;2.22;;;1.92;;
52041;SDS011;38052;45.944;13.624;2022-09-09T08:58:05;8.10;;;2.20;;
52041;SDS011;38052;45.944;13.624;2022-09-09T09:05:48;3.45;;;2.70;;
52041;SDS011;38052;45.944;13.624;2022-09-09T09:08:29;9.50;;;3.00;;
52041;SDS011;38052;45.944;13.624;2022-09-09T09:10:57;5.63;;;3.35;;
52041;SDS011;38052;45.944;13.624;2022-09-09T09:16:19;5.78;;;3.13;;
52041;SDS011;38052;45.944;13.624;2022-09-09T09:18:48;5.40;;;3.22;;
52041;SDS011;38052;45.944;13.624;2022-09-09T09:21:18;7.07;;;3.25;;
52041;SDS011;38052;45.944;13.624;2022-09-09T09:23:51;6.00;;;3.15;;
52041;SDS011;38052;45.944;13.624;2022-09-09T09:26:19;5.68;;;3.28;;
52041;SDS011;38052;45.944;13.624;2022-09-09T09:28:47;4.85;;;2.10;;
52041;SDS011;38052;45.944;13.624;2022-09-09T09:31:14;4.85;;;2.45;;
52041;SDS011;38052;45.944;13.624;2022-09-09T09:36:07;6.00;;;2.53;;
52041;SDS011;38052;45.944;13.624;2022-09-09T09:38:35;4.47;;;1.98;;
52041;SDS011;38052;45.944;13.624;2022-09-09T09:41:02;2.97;;;1.60;;
52041;SDS011;38052;45.944;13.624;2022-09-09T09:43:32;2.17;;;1.38;;
52041;SDS011;38052;45.944;13.624;2022-09-09T09:46:00;2.97;;;1.73;;
52041;SDS011;38052;45.944;13.624;2022-09-09T09:48:27;5.15;;;1.67;;
52041;SDS011;38052;45.944;13.624;2022-09-09T09:50:57;8.23;;;2.97;;
52041;SDS011;38052;45.944;13.624;2022-09-09T09:55:58;3.95;;;1.40;;
52041;SDS011;38052;45.944;13.624;2022-09-09T09:58:26;4.65;;;1.77;;
52041;SDS011;38052;45.944;13.624;2022-09-09T10:00:53;5.38;;;2.05;;
52041;SDS011;38052;45.944;13.624;2022-09-09T10:03:38;4.28;;;2.38;;
52041;SDS011;38052;45.944;13.624;2022-09-09T10:06:06;7.00;;;2.35;;
52041;SDS011;38052;45.944;13.624;2022-09-09T10:08:33;5.03;;;2.25;;
52041;SDS011;38052;45.944;13.624;2022-09-09T10:21:07;6.25;;;2.50;;
52041;SDS011;38052;45.944;13.624;2022-09-09T10:23:51;4.43;;;1.88;;
52041;SDS011;38052;45.944;13.624;2022-09-09T10:29:03;2.95;;;2.00;;
52041;SDS011;38052;45.944;13.624;2022-09-09T10:36:51;5.82;;;1.20;;
52041;SDS011;38052;45.944;13.624;2022-09-09T10:39:31;2.30;;;1.20;;
52041;SDS011;38052;45.944;13.624;2022-09-09T10:54:47;3.35;;;0.90;;
52041;SDS011;38052;45.944;13.624;2022-09-09T10:57:27;3.30;;;0.93;;
52041;SDS011;38052;45.944;13.624;2022-09-09T10:59:58;1.23;;;1.00;;
52041;SDS011;38052;45.944;13.624;2022-09-09T11:02:28;1.92;;;0.65;;
52041;SDS011;38052;45.944;13.624;2022-09-09T11:04:55;1.90;;;0.80;;
52041;SDS011;38052;45.944;13.624;2022-09-09T11:07:33;2.15;;;0.80;;
52041;SDS011;38052;45.944;13.624;2022-09-09T11:10:02;3.53;;;0.90;;
52041;SDS011;38052;45.944;13.624;2022-09-09T11:15:07;4.45;;;0.75;;
52041;SDS011;38052;45.944;13.624;2022-09-09T11:17:50;3.95;;;1.02;;
52041;SDS011;38052;45.944;13.624;2022-09-09T11:20:19;2.65;;;1.33;;
52041;SDS011;38052;45.944;13.624;2022-09-09T11:22:57;5.88;;;1.13;;
52041;SDS011;38052;45.944;13.624;2022-09-09T11:40:29;1.23;;;0.70;;
52041;SDS011;38052;45.944;13.624;2022-09-09T11:43:09;2.30;;;0.85;;
52041;SDS011;38052;45.944;13.624;2022-09-09T11:45:38;3.15;;;1.35;;
52041;SDS011;38052;45.944;13.624;2022-09-09T11:48:05;2.10;;;0.82;;
52041;SDS011;38052;45.944;13.624;2022-09-09T11:50:33;1.60;;;0.90;;
52041;SDS011;38052;45.944;13.624;2022-09-09T11:55:46;4.63;;;1.30;;
52041;SDS011;38052;45.944;13.624;2022-09-09T12:00:40;3.15;;;0.93;;
52041;SDS011;38052;45.944;13.624;2022-09-09T12:05:55;4.30;;;0.60;;
52041;SDS011;38052;45.944;13.624;2022-09-09T12:08:25;2.67;;;0.80;;
52041;SDS011;38052;45.944;13.624;2022-09-09T12:10:53;1.90;;;0.63;;
52041;SDS011;38052;45.944;13.624;2022-09-09T12:13:22;2.95;;;1.13;;
52041;SDS011;38052;45.944;13.624;2022-09-09T12:15:56;2.85;;;0.80;;
52041;SDS011;38052;45.944;13.624;2022-09-09T12:18:24;4.38;;;1.15;;
52041;SDS011;38052;45.944;13.624;2022-09-09T12:20:57;1.33;;;0.63;;
52041;SDS011;38052;45.944;13.624;2022-09-09T12:33:42;2.88;;;0.70;;
52041;SDS011;38052;45.944;13.624;2022-09-09T12:36:11;1.52;;;0.40;;
52041;SDS011;38052;45.944;13.624;2022-09-09T12:38:39;0.95;;;0.60;;
52041;SDS011;38052;45.944;13.624;2022-09-09T12:41:06;0.73;;;0.50;;
52041;SDS011;38052;45.944;13.624;2022-09-09T12:43:32;2.08;;;0.50;;
52041;SDS011;38052;45.944;13.624;2022-09-09T12:46:00;3.30;;;0.90;;
52041;SDS011;38052;45.944;13.624;2022-09-09T12:48:30;2.67;;;0.68;;
52041;SDS011;38052;45.944;13.624;2022-09-09T12:50:58;0.75;;;0.30;;
52041;SDS011;38052;45.944;13.624;2022-09-09T12:53:26;2.22;;;0.60;;
52041;SDS011;38052;45.944;13.624;2022-09-09T12:55:57;0.63;;;0.40;;
52041;SDS011;38052;45.944;13.624;2022-09-09T12:58:23;0.98;;;0.50;;
52041;SDS011;38052;45.944;13.624;2022-09-09T13:00:53;1.02;;;0.40;;
52041;SDS011;38052;45.944;13.624;2022-09-09T13:03:21;2.88;;;0.60;;
52041;SDS011;38052;45.944;13.624;2022-09-09T13:05:48;1.50;;;0.35;;
52041;SDS011;38052;45.944;13.624;2022-09-09T13:08:16;1.95;;;0.32;;
52041;SDS011;38052;45.944;13.624;2022-09-09T13:11:01;1.63;;;0.50;;
52041;SDS011;38052;45.944;13.624;2022-09-09T13:15:59;1.05;;;0.30;;
52041;SDS011;38052;45.944;13.624;2022-09-09T13:18:33;1.17;;;0.40;;
52041;SDS011;38052;45.944;13.624;2022-09-09T13:21:00;2.92;;;0.40;;
52041;SDS011;38052;45.944;13.624;2022-09-09T13:23:31;4.75;;;0.40;;
52041;SDS011;38052;45.944;13.624;2022-09-09T13:26:00;1.92;;;0.70;;
52041;SDS011;38052;45.944;13.624;2022-09-09T13:28:27;1.90;;;0.57;;
52041;SDS011;38052;45.944;13.624;2022-09-09T13:30:58;1.33;;;0.40;;
52041;SDS011;38052;45.944;13.624;2022-09-09T13:33:29;0.77;;;0.30;;
52041;SDS011;38052;45.944;13.624;2022-09-09T13:38:22;2.00;;;0.60;;
52041;SDS011;38052;45.944;13.624;2022-09-09T13:40:59;1.45;;;0.50;;
52041;SDS011;38052;45.944;13.624;2022-09-09T13:43:47;1.63;;;0.63;;
52041;SDS011;38052;45.944;13.624;2022-09-09T13:48:56;1.85;;;0.65;;
52041;SDS011;38052;45.944;13.624;2022-09-09T13:51:30;0.93;;;0.40;;
52041;SDS011;38052;45.944;13.624;2022-09-09T13:53:59;1.95;;;0.50;;
52041;SDS011;38052;45.944;13.624;2022-09-09T13:56:25;6.10;;;0.60;;
52041;SDS011;38052;45.944;13.624;2022-09-09T13:58:52;1.55;;;0.43;;
52041;SDS011;38052;45.944;13.624;2022-09-09T14:01:19;3.17;;;0.32;;
52041;SDS011;38052;45.944;13.624;2022-09-09T14:03:45;1.42;;;0.25;;
52041;SDS011;38052;45.944;13.624;2022-09-09T14:06:11;2.97;;;0.45;;
52041;SDS011;38052;45.944;13.624;2022-09-09T14:08:38;2.30;;;0.75;;
52041;SDS011;38052;45.944;13.624;2022-09-09T14:11:05;2.95;;;0.40;;
52041;SDS011;38052;45.944;13.624;2022-09-09T14:13:32;1.35;;;0.50;;
52041;SDS011;38052;45.944;13.624;2022-09-09T14:15:58;1.05;;;0.60;;
52041;SDS011;38052;45.944;13.624;2022-09-09T14:18:25;1.55;;;0.50;;
52041;SDS011;38052;45.944;13.624;2022-09-09T14:20:52;0.95;;;0.50;;
52041;SDS011;38052;45.944;13.624;2022-09-09T14:23:18;4.10;;;0.60;;
52041;SDS011;38052;45.944;13.624;2022-09-09T14:25:47;1.98;;;0.43;;
52041;SDS011;38052;45.944;13.624;2022-09-09T14:28:14;2.67;;;0.68;;
52041;SDS011;38052;45.944;13.624;2022-09-09T14:30:40;1.75;;;0.57;;
52041;SDS011;38052;45.944;13.624;2022-09-09T14:33:08;2.63;;;0.90;;
52041;SDS011;38052;45.944;13.624;2022-09-09T14:35:36;1.63;;;0.73;;
52041;SDS011;38052;45.944;13.624;2022-09-09T14:38:03;3.85;;;0.50;;
52041;SDS011;38052;45.944;13.624;2022-09-09T14:40:29;1.60;;;0.50;;
52041;SDS011;38052;45.944;13.624;2022-09-09T14:42:55;2.05;;;0.70;;
52041;SDS011;38052;45.944;13.624;2022-09-09T14:45:22;4.53;;;0.70;;
52041;SDS011;38052;45.944;13.624;2022-09-09T14:47:50;0.93;;;0.40;;
52041;SDS011;38052;45.944;13.624;2022-09-09T14:50:17;1.77;;;0.73;;
52041;SDS011;38052;45.944;13.624;2022-09-09T14:52:43;3.20;;;0.73;;
52041;SDS011;38052;45.944;13.624;2022-09-09T14:55:09;2.47;;;0.73;;
52041;SDS011;38052;45.944;13.624;2022-09-09T14:57:36;1.27;;;0.40;;
52041;SDS011;38052;45.944;13.624;2022-09-09T15:00:04;4.28;;;0.45;;
52041;SDS011;38052;45.944;13.624;2022-09-09T15:02:30;1.83;;;0.60;;
52041;SDS011;38052;45.944;13.624;2022-09-09T15:04:57;4.57;;;0.57;;
52041;SDS011;38052;45.944;13.624;2022-09-09T15:07:24;2.03;;;0.80;;
52041;SDS011;38052;45.944;13.624;2022-09-09T15:09:51;1.50;;;0.50;;
52041;SDS011;38052;45.944;13.624;2022-09-09T15:12:18;3.63;;;0.80;;
52041;SDS011;38052;45.944;13.624;2022-09-09T15:14:45;3.17;;;0.80;;
52041;SDS011;38052;45.944;13.624;2022-09-09T15:17:11;4.82;;;0.50;;
52041;SDS011;38052;45.944;13.624;2022-09-09T15:19:38;6.15;;;0.70;;
52041;SDS011;38052;45.944;13.624;2022-09-09T15:22:04;4.00;;;0.57;;
52041;SDS011;38052;45.944;13.624;2022-09-09T15:24:31;2.80;;;0.70;;
52041;SDS011;38052;45.944;13.624;2022-09-09T15:26:58;4.50;;;0.90;;
52041;SDS011;38052;45.944;13.624;2022-09-09T15:29:25;2.55;;;0.98;;
52041;SDS011;38052;45.944;13.624;2022-09-09T15:31:53;2.65;;;0.50;;
52041;SDS011;38052;45.944;13.624;2022-09-09T15:34:19;4.13;;;0.68;;
52041;SDS011;38052;45.944;13.624;2022-09-09T15:36:45;2.72;;;0.90;;
52041;SDS011;38052;45.944;13.624;2022-09-09T15:39:13;3.88;;;0.90;;
52041;SDS011;38052;45.944;13.624;2022-09-09T15:41:44;3.40;;;1.20;;
52041;SDS011;38052;45.944;13.624;2022-09-09T15:44:11;3.33;;;0.93;;
52041;SDS011;38052;45.944;13.624;2022-09-09T15:46:42;1.98;;;0.50;;
52041;SDS011;38052;45.944;13.624;2022-09-09T15:51:35;3.78;;;0.80;;
52041;SDS011;38052;45.944;13.624;2022-09-09T15:54:02;2.13;;;1.23;;
52041;SDS011;38052;45.944;13.624;2022-09-09T15:56:29;3.60;;;1.00;;
52041;SDS011;38052;45.944;13.624;2022-09-09T15:58:56;2.70;;;1.48;;
52041;SDS011;38052;45.944;13.624;2022-09-09T16:01:24;2.17;;;0.80;;
52041;SDS011;38052;45.944;13.624;2022-09-09T16:03:50;3.35;;;1.02;;
52041;SDS011;38052;45.944;13.624;2022-09-09T16:06:17;2.35;;;1.00;;
52041;SDS011;38052;45.944;13.624;2022-09-09T16:08:44;8.05;;;0.82;;
52041;SDS011;38052;45.944;13.624;2022-09-09T16:11:12;2.28;;;0.70;;
52041;SDS011;38052;45.944;13.624;2022-09-09T16:13:43;5.20;;;1.30;;
52041;SDS011;38052;45.944;13.624;2022-09-09T16:16:13;4.95;;;1.00;;
52041;SDS011;38052;45.944;13.624;2022-09-09T16:18:43;2.83;;;0.90;;
52041;SDS011;38052;45.944;13.624;2022-09-09T16:21:14;3.38;;;0.80;;
52041;SDS011;38052;45.944;13.624;2022-09-09T16:23:40;3.28;;;0.80;;
52041;SDS011;38052;45.944;13.624;2022-09-09T16:26:08;3.83;;;1.08;;
52041;SDS011;38052;45.944;13.624;2022-09-09T16:28:36;9.35;;;1.35;;
52041;SDS011;38052;45.944;13.624;2022-09-09T16:31:10;3.15;;;1.13;;
52041;SDS011;38052;45.944;13.624;2022-09-09T16:33:37;2.92;;;1.00;;
52041;SDS011;38052;45.944;13.624;2022-09-09T16:36:07;5.70;;;1.65;;
52041;SDS011;38052;45.944;13.624;2022-09-09T16:38:35;4.05;;;1.35;;
52041;SDS011;38052;45.944;13.624;2022-09-09T16:41:02;5.03;;;1.55;;
52041;SDS011;38052;45.944;13.624;2022-09-09T16:43:29;5.53;;;1.75;;
52041;SDS011;38052;45.944;13.624;2022-09-09T16:45:57;2.38;;;1.05;;
52041;SDS011;38052;45.944;13.624;2022-09-09T16:48:25;4.53;;;1.20;;
52041;SDS011;38052;45.944;13.624;2022-09-09T16:50:51;4.38;;;1.25;;
52041;SDS011;38052;45.944;13.624;2022-09-09T16:53:18;2.72;;;0.73;;
52041;SDS011;38052;45.944;13.624;2022-09-09T16:55:44;5.35;;;1.30;;
52041;SDS011;38052;45.944;13.624;2022-09-09T16:58:11;2.05;;;0.90;;